createdAt,value
2023-01-27T00:01:17.038Z,11.10
2023-01-27T00:03:43.976Z,11.18
2023-01-27T00:06:10.804Z,11.48
2023-01-27T00:08:37.580Z,11.77
2023-01-27T00:11:04.500Z,11.50
2023-01-27T00:13:31.380Z,10.80
2023-01-27T00:15:58.206Z,10.77
2023-01-27T00:18:25.037Z,9.80
2023-01-27T00:20:52.115Z,8.80
2023-01-27T00:23:21.959Z,7.78
2023-01-27T00:25:48.785Z,7.00
2023-01-27T00:28:16.060Z,5.45
2023-01-27T00:30:42.919Z,5.68
2023-01-27T00:33:09.717Z,5.00
2023-01-27T00:35:36.595Z,4.57
2023-01-27T00:38:03.356Z,4.45
2023-01-27T00:40:30.128Z,4.00
2023-01-27T00:42:56.896Z,3.30
2023-01-27T00:45:23.684Z,3.10
2023-01-27T00:47:50.637Z,3.10
2023-01-27T00:53:04.257Z,2.80
2023-01-27T00:58:17.695Z,2.80
2023-01-27T01:00:45.200Z,2.87
2023-01-27T01:03:12.029Z,3.00
2023-01-27T01:05:38.787Z,2.75
2023-01-27T01:08:05.612Z,2.38
2023-01-27T01:10:32.431Z,2.10
2023-01-27T01:12:59.191Z,2.00
2023-01-27T01:15:25.975Z,2.10
2023-01-27T01:17:52.805Z,2.08
2023-01-27T01:20:19.567Z,2.10
2023-01-27T01:22:46.330Z,2.25
2023-01-27T01:25:13.125Z,2.10
2023-01-27T01:27:39.858Z,1.70
2023-01-27T01:30:07.344Z,1.77
2023-01-27T01:32:34.090Z,1.70
2023-01-27T01:35:00.827Z,2.10
2023-01-27T01:37:27.653Z,1.90
2023-01-27T01:39:54.395Z,1.73
2023-01-27T01:42:24.713Z,1.90
2023-01-27T01:45:29.939Z,1.90
2023-01-27T01:47:57.677Z,2.10
2023-01-27T01:53:12.072Z,1.90
2023-01-27T01:58:28.413Z,1.90
2023-01-27T02:03:45.069Z,1.75
2023-01-27T02:08:59.769Z,1.38
2023-01-27T02:14:17.315Z,1.40
2023-01-27T02:23:08.950Z,1.25
2023-01-27T02:25:35.687Z,1.42
2023-01-27T02:28:04.160Z,1.58
2023-01-27T02:30:31.828Z,1.00
2023-01-27T02:32:58.842Z,1.10
2023-01-27T02:38:25.442Z,1.00
2023-01-27T02:43:42.491Z,1.05
2023-01-27T02:48:56.336Z,1.08
2023-01-27T02:51:23.525Z,1.10
2023-01-27T02:53:50.374Z,0.90
2023-01-27T02:56:17.188Z,1.10
2023-01-27T02:58:43.968Z,1.10
2023-01-27T03:01:10.983Z,1.00
2023-01-27T03:03:37.849Z,0.90
2023-01-27T03:06:04.718Z,1.35
2023-01-27T03:08:31.565Z,1.00
2023-01-27T03:10:58.326Z,1.10
2023-01-27T03:13:26.094Z,1.17
2023-01-27T03:15:52.895Z,1.15
2023-01-27T03:18:19.738Z,1.23
2023-01-27T03:20:48.994Z,1.00
2023-01-27T03:23:17.972Z,1.10
2023-01-27T03:25:46.301Z,1.10
2023-01-27T03:28:13.735Z,0.90
2023-01-27T03:30:41.568Z,1.10
2023-01-27T03:33:08.641Z,1.00
2023-01-27T03:35:36.856Z,1.30
2023-01-27T03:38:03.729Z,1.20
2023-01-27T03:40:30.459Z,1.10
2023-01-27T03:42:57.280Z,1.20
2023-01-27T03:45:24.026Z,1.40
2023-01-27T03:47:51.989Z,1.00
2023-01-27T03:50:18.911Z,0.90
2023-01-27T03:52:46.732Z,1.10
2023-01-27T03:55:13.856Z,1.10
2023-01-27T03:57:40.760Z,0.93
2023-01-27T04:00:08.360Z,0.70
2023-01-27T04:02:35.105Z,0.70
2023-01-27T04:05:01.924Z,0.90
2023-01-27T04:07:28.717Z,1.00
2023-01-27T04:09:55.457Z,2.40
2023-01-27T04:12:22.235Z,1.00
2023-01-27T04:17:35.674Z,1.00
2023-01-27T04:22:49.719Z,1.20
2023-01-27T04:25:16.765Z,1.40
2023-01-27T04:27:43.661Z,1.70
2023-01-27T04:30:11.125Z,1.50
2023-01-27T04:32:37.902Z,2.30
2023-01-27T04:35:05.220Z,4.18
2023-01-27T04:37:31.968Z,1.60
2023-01-27T04:39:58.760Z,1.60
2023-01-27T04:42:25.522Z,1.63
2023-01-27T04:44:52.296Z,1.40
2023-01-27T04:47:19.045Z,1.60
2023-01-27T04:49:45.757Z,1.90
2023-01-27T04:52:12.520Z,1.60
2023-01-27T04:54:39.272Z,1.60
2023-01-27T04:57:06.057Z,1.80
2023-01-27T04:59:32.848Z,2.60
2023-01-27T05:01:59.812Z,3.10
2023-01-27T05:04:26.655Z,2.10
2023-01-27T05:09:40.410Z,1.60
2023-01-27T05:14:54.000Z,1.70
2023-01-27T05:17:20.796Z,1.60
2023-01-27T05:19:47.535Z,2.25
2023-01-27T05:22:14.390Z,1.88
2023-01-27T05:24:41.179Z,1.70
2023-01-27T05:27:08.007Z,2.45
2023-01-27T05:29:34.754Z,2.45
2023-01-27T05:32:01.548Z,2.80
2023-01-27T05:34:28.363Z,2.30
2023-01-27T05:36:55.111Z,2.47
2023-01-27T05:39:21.844Z,1.92
2023-01-27T05:41:48.716Z,2.63
2023-01-27T05:44:15.607Z,2.00
2023-01-27T05:46:42.607Z,1.88
2023-01-27T05:51:56.059Z,1.40
2023-01-27T05:54:22.839Z,1.50
2023-01-27T05:56:49.648Z,1.77
2023-01-27T05:59:16.468Z,1.70
2023-01-27T06:01:43.243Z,1.38
2023-01-27T06:04:10.507Z,1.80
2023-01-27T06:06:37.257Z,1.40
2023-01-27T06:09:04.176Z,4.38
2023-01-27T06:11:30.996Z,2.30
2023-01-27T06:13:57.985Z,2.90
2023-01-27T06:16:24.851Z,3.75
2023-01-27T06:18:51.955Z,2.88
2023-01-27T06:21:19.102Z,2.30
2023-01-27T06:23:45.878Z,3.33
2023-01-27T06:26:15.772Z,2.90
2023-01-27T06:28:31.460Z,0
2023-01-27T06:28:43.005Z,1.95
2023-01-27T06:31:12.587Z,3.15
2023-01-27T06:33:40.078Z,6.57
2023-01-27T06:36:09.643Z,5.55
2023-01-27T06:38:36.702Z,2.28
2023-01-27T06:41:04.442Z,1.80
2023-01-27T06:43:31.371Z,1.40
2023-01-27T06:45:58.462Z,1.63
2023-01-27T06:48:26.321Z,4.18
2023-01-27T06:50:54.155Z,2.60
2023-01-27T06:53:21.163Z,3.10
2023-01-27T06:55:48.472Z,2.25
2023-01-27T06:58:16.268Z,5.18
2023-01-27T07:00:43.149Z,2.20
2023-01-27T07:03:11.769Z,1.35
2023-01-27T07:05:39.850Z,1.30
2023-01-27T07:08:06.727Z,3.20
2023-01-27T07:10:33.602Z,1.60
2023-01-27T07:15:56.091Z,1.10
2023-01-27T07:18:23.510Z,2.40
2023-01-27T07:20:50.259Z,2.73
2023-01-27T07:23:17.116Z,2.50
2023-01-27T07:25:43.874Z,2.30
2023-01-27T07:28:10.798Z,3.00
2023-01-27T07:30:37.629Z,1.77
2023-01-27T07:33:10.256Z,1.20
2023-01-27T07:35:38.345Z,1.20
2023-01-27T07:38:06.465Z,1.10
2023-01-27T07:43:20.028Z,1.40
2023-01-27T07:45:46.892Z,1.50
2023-01-27T07:48:13.623Z,1.10
2023-01-27T07:50:40.738Z,2.38
2023-01-27T07:53:07.551Z,1.35
2023-01-27T07:55:34.548Z,1.50
2023-01-27T07:58:01.539Z,1.40
2023-01-27T08:00:28.558Z,1.30
2023-01-27T08:02:56.812Z,0.90
2023-01-27T08:05:24.306Z,1.13
2023-01-27T08:05:59.790Z,0
2023-01-27T08:07:52.110Z,1.23
2023-01-27T08:13:06.295Z,1.10
2023-01-27T08:18:19.806Z,1.20
2023-01-27T08:20:46.988Z,1.10
2023-01-27T08:23:13.821Z,1.05
2023-01-27T08:25:40.631Z,0.95
2023-01-27T08:28:07.416Z,1.10
2023-01-27T08:30:34.233Z,1.02
2023-01-27T08:33:01.038Z,1.05
2023-01-27T08:35:27.795Z,1.00
2023-01-27T08:40:42.406Z,1.02
2023-01-27T08:45:56.688Z,1.00
2023-01-27T08:48:23.464Z,1.10
2023-01-27T08:50:50.240Z,1.00
2023-01-27T08:53:17.033Z,1.00
2023-01-27T08:55:43.834Z,1.10
2023-01-27T08:58:10.572Z,1.20
2023-01-27T09:00:39.960Z,1.10
2023-01-27T09:03:06.798Z,1.10
2023-01-27T09:05:36.080Z,1.05
2023-01-27T09:08:03.659Z,0.90
2023-01-27T09:10:30.640Z,1.00
2023-01-27T09:12:57.406Z,1.10
2023-01-27T09:15:24.270Z,1.00
2023-01-27T09:17:51.058Z,1.17
2023-01-27T09:20:17.949Z,1.00
2023-01-27T09:22:44.757Z,1.10
2023-01-27T09:25:16.389Z,1.17
2023-01-27T09:30:31.008Z,0.90
2023-01-27T09:32:59.124Z,1.00
2023-01-27T09:35:27.738Z,1.00
2023-01-27T09:37:58.839Z,1.00
2023-01-27T09:40:36.681Z,1.00
2023-01-27T09:43:26.449Z,1.00
2023-01-27T09:45:53.228Z,0.88
2023-01-27T09:48:43.923Z,1.00
2023-01-27T09:51:28.815Z,1.13
2023-01-27T09:57:11.872Z,1.10
2023-01-27T10:00:20.345Z,0.90
2023-01-27T10:03:31.131Z,1.20
2023-01-27T10:06:00.902Z,1.00
2023-01-27T10:08:36.328Z,1.05
2023-01-27T10:14:19.771Z,1.10
2023-01-27T10:17:05.280Z,1.10
2023-01-27T10:19:59.475Z,1.10
2023-01-27T10:28:41.367Z,1.20
2023-01-27T10:32:03.237Z,1.00
2023-01-27T10:34:48.757Z,1.00
2023-01-27T10:37:18.509Z,1.10
2023-01-27T10:40:05.885Z,0.90
2023-01-27T10:45:40.816Z,1.00
2023-01-27T10:48:25.542Z,0.80
2023-01-27T10:51:07.297Z,1.10
2023-01-27T10:53:52.835Z,1.00
2023-01-27T10:56:39.942Z,1.02
2023-01-27T10:59:31.693Z,0.90
2023-01-27T11:01:28.538Z,0
2023-01-27T11:02:22.864Z,1.05
2023-01-27T11:04:56.135Z,1.17
2023-01-27T11:07:23.764Z,1.00
2023-01-27T11:12:51.441Z,0.90
2023-01-27T11:15:33.313Z,1.00
2023-01-27T11:18:15.045Z,1.20
2023-01-27T11:20:54.596Z,1.00
2023-01-27T11:23:34.804Z,0.90
2023-01-27T11:26:13.782Z,0.90
2023-01-27T11:29:18.336Z,1.00
2023-01-27T11:31:59.868Z,1.00
2023-01-27T11:34:31.552Z,1.10
2023-01-27T11:36:58.579Z,0.90
2023-01-27T11:39:30.078Z,0.90
2023-01-27T11:41:57.108Z,0.90
2023-01-27T11:44:32.069Z,0.80
2023-01-27T11:49:48.710Z,1.05
2023-01-27T11:52:19.080Z,0.73
2023-01-27T11:54:51.997Z,2.50
2023-01-27T11:57:24.441Z,2.53
2023-01-27T11:59:56.971Z,1.35
2023-01-27T12:02:35.495Z,1.20
2023-01-27T12:05:11.214Z,3.13
2023-01-27T12:07:45.503Z,3.00
2023-01-27T12:10:33.569Z,1.10
2023-01-27T12:13:16.931Z,2.30
2023-01-27T12:16:02.143Z,1.10
2023-01-27T12:18:33.148Z,0.80
2023-01-27T12:21:02.634Z,0.80
2023-01-27T12:23:40.165Z,0.75
2023-01-27T12:26:12.131Z,0.70
2023-01-27T12:28:47.565Z,0.80
2023-01-27T12:31:31.681Z,0.80
2023-01-27T12:34:08.312Z,0.90
2023-01-27T12:39:31.842Z,0.90
2023-01-27T12:44:46.248Z,1.05
2023-01-27T12:47:26.660Z,1.00
2023-01-27T12:50:32.917Z,1.02
2023-01-27T12:53:14.546Z,2.00
2023-01-27T12:55:58.632Z,1.60
2023-01-27T12:58:47.253Z,0.80
2023-01-27T13:01:27.759Z,0.80
2023-01-27T13:03:58.360Z,0.90
2023-01-27T13:06:32.928Z,1.00
2023-01-27T13:09:01.679Z,0.90
2023-01-27T13:14:23.188Z,0.90
2023-01-27T13:16:57.860Z,0.90
2023-01-27T13:19:32.699Z,1.00
2023-01-27T13:22:00.110Z,1.00
2023-01-27T13:24:42.603Z,0.90
2023-01-27T13:27:17.343Z,0.80
2023-01-27T13:29:54.870Z,0.90
2023-01-27T13:32:28.372Z,0.80
2023-01-27T13:35:25.861Z,1.25
2023-01-27T13:38:23.480Z,1.20
2023-01-27T13:40:50.515Z,1.20
2023-01-27T13:43:30.811Z,1.00
2023-01-27T13:46:28.668Z,0.95
2023-01-27T13:49:03.394Z,0.80
2023-01-27T13:51:31.816Z,0.90
2023-01-27T13:54:04.303Z,0.98
2023-01-27T13:56:33.780Z,0.80
2023-01-27T13:59:25.176Z,0.90
2023-01-27T14:05:36.332Z,0.88
2023-01-27T14:08:25.871Z,0.90
2023-01-27T14:11:01.531Z,0.80
2023-01-27T14:13:43.190Z,0.97
2023-01-27T14:16:23.007Z,0.82
2023-01-27T14:18:59.702Z,1.00
2023-01-27T14:21:42.424Z,0.80
2023-01-27T14:21:57.045Z,0
2023-01-27T14:24:34.491Z,1.00
2023-01-27T14:27:13.109Z,2.70
2023-01-27T14:29:56.601Z,4.05
2023-01-27T14:35:56.273Z,0.90
2023-01-27T14:38:39.426Z,0.90
2023-01-27T14:41:15.653Z,0.85
2023-01-27T14:43:42.527Z,0.90
2023-01-27T14:46:29.592Z,1.00
2023-01-27T14:52:34.155Z,0.95
2023-01-27T14:55:07.198Z,0.90
2023-01-27T14:57:42.263Z,1.00
2023-01-27T15:00:31.126Z,0.90
2023-01-27T15:03:33.087Z,1.38
2023-01-27T15:06:24.652Z,1.60
2023-01-27T15:09:13.442Z,1.58
2023-01-27T15:12:08.413Z,1.10
2023-01-27T15:14:45.078Z,1.08
2023-01-27T15:17:26.978Z,0.75
2023-01-27T15:20:18.169Z,0.75
2023-01-27T15:22:59.285Z,1.00
2023-01-27T15:28:30.653Z,0.85
2023-01-27T15:31:23.013Z,1.20
2023-01-27T15:33:55.558Z,1.05
2023-01-27T15:36:28.310Z,1.50
2023-01-27T15:39:10.525Z,1.10
2023-01-27T15:40:08.784Z,0
2023-01-27T15:41:57.526Z,0.90
2023-01-27T15:44:38.726Z,0.90
2023-01-27T15:47:19.372Z,1.00
2023-01-27T15:49:50.209Z,1.17
2023-01-27T15:52:31.769Z,0.90
2023-01-27T15:57:47.710Z,1.10
2023-01-27T16:00:37.186Z,1.23
2023-01-27T16:03:06.695Z,2.25
2023-01-27T16:05:38.031Z,2.63
2023-01-27T16:08:14.511Z,1.60
2023-01-27T16:10:42.029Z,3.47
2023-01-27T16:13:27.885Z,2.33
2023-01-27T16:16:19.512Z,2.10
2023-01-27T16:18:55.208Z,1.87
2023-01-27T16:21:56.155Z,1.67
2023-01-27T16:24:54.095Z,1.30
2023-01-27T16:27:48.864Z,1.25
2023-01-27T16:30:20.858Z,1.05
2023-01-27T16:33:05.475Z,1.02
2023-01-27T16:35:48.583Z,0.90
2023-01-27T16:38:29.027Z,1.10
2023-01-27T16:40:59.853Z,1.10
2023-01-27T16:46:01.495Z,1.00
2023-01-27T16:48:30.916Z,1.40
2023-01-27T16:51:28.045Z,0.90
2023-01-27T16:53:58.103Z,0.90
2023-01-27T16:56:33.748Z,0.93
2023-01-27T16:59:09.418Z,1.90
2023-01-27T17:01:48.524Z,1.40
2023-01-27T17:04:23.031Z,2.55
2023-01-27T17:09:28.480Z,3.10
2023-01-27T17:11:55.339Z,1.50
2023-01-27T17:14:33.407Z,0
2023-01-27T17:17:25.876Z,1.90
2023-01-27T17:22:42.945Z,1.10
2023-01-27T17:25:29.998Z,1.10
2023-01-27T17:27:59.765Z,1.30
2023-01-27T17:30:33.121Z,1.30
2023-01-27T17:33:02.357Z,1.10
2023-01-27T17:35:32.587Z,1.00
2023-01-27T17:38:34.693Z,2.08
2023-01-27T17:41:01.485Z,12.13
2023-01-27T17:43:39.087Z,9.10
2023-01-27T17:46:05.901Z,2.70
2023-01-27T17:48:33.975Z,1.75
2023-01-27T17:51:00.920Z,1.20
2023-01-27T17:53:28.075Z,0.93
2023-01-27T17:55:55.684Z,0.90
2023-01-27T17:58:27.735Z,1.00
2023-01-27T18:00:55.800Z,1.05
2023-01-27T18:06:21.234Z,1.83
2023-01-27T18:08:57.489Z,1.10
2023-01-27T18:11:30.669Z,1.00
2023-01-27T18:17:02.856Z,1.10
2023-01-27T18:19:30.412Z,1.00
2023-01-27T18:22:12.244Z,1.45
2023-01-27T18:27:25.833Z,1.20
2023-01-27T18:32:24.156Z,1.27
2023-01-27T18:34:54.482Z,1.33
2023-01-27T18:37:35.413Z,1.10
2023-01-27T18:40:22.126Z,1.30
2023-01-27T18:42:53.301Z,1.35
2023-01-27T18:45:20.109Z,3.35
2023-01-27T18:47:49.479Z,2.97
2023-01-27T18:50:18.339Z,1.55
2023-01-27T18:52:45.702Z,3.80
2023-01-27T18:55:17.665Z,2.10
2023-01-27T18:57:46.195Z,1.30
2023-01-27T19:00:19.880Z,1.20
2023-01-27T19:05:36.497Z,1.10
2023-01-27T19:10:51.597Z,1.10
2023-01-27T19:16:12.250Z,1.10
2023-01-27T19:18:39.780Z,0.90
2023-01-27T19:21:06.864Z,1.10
2023-01-27T19:23:33.663Z,1.20
2023-01-27T19:28:56.020Z,1.00
2023-01-27T19:31:23.191Z,0.90
2023-01-27T19:33:50.090Z,1.00
2023-01-27T19:36:41.659Z,1.00
2023-01-27T19:39:08.398Z,1.10
2023-01-27T19:41:35.172Z,1.40
2023-01-27T19:44:01.958Z,1.10
2023-01-27T19:46:29.025Z,1.10
2023-01-27T19:48:56.011Z,0.90
2023-01-27T19:51:22.748Z,0.90
2023-01-27T19:53:49.494Z,1.00
2023-01-27T19:56:21.619Z,1.70
2023-01-27T19:58:50.651Z,1.15
2023-01-27T20:01:21.503Z,1.08
2023-01-27T20:03:48.856Z,0.90
2023-01-27T20:06:18.985Z,0.90
2023-01-27T20:08:45.795Z,0.93
2023-01-27T20:11:30.151Z,1.20
2023-01-27T20:13:57.202Z,1.00
2023-01-27T20:16:24.323Z,12.75
2023-01-27T20:18:51.582Z,8.13
2023-01-27T20:21:18.384Z,6.75
2023-01-27T20:23:45.134Z,1.58
2023-01-27T20:26:14.879Z,1.20
2023-01-27T20:28:41.733Z,1.00
2023-01-27T20:31:12.864Z,2.60
2023-01-27T20:33:39.655Z,1.60
2023-01-27T20:36:17.039Z,1.10
2023-01-27T20:41:30.736Z,1.10
2023-01-27T20:43:58.997Z,1.00
2023-01-27T20:46:26.169Z,0.90
2023-01-27T20:48:53.249Z,1.10
2023-01-27T20:51:20.275Z,1.10
2023-01-27T20:53:47.074Z,1.20
2023-01-27T20:56:16.203Z,0.80
2023-01-27T20:58:42.995Z,1.20
2023-01-27T21:01:12.460Z,1.10
2023-01-27T21:03:40.235Z,1.10
2023-01-27T21:08:57.470Z,1.17
2023-01-27T21:14:11.138Z,14.15
2023-01-27T21:16:37.960Z,3.28
2023-01-27T21:19:04.752Z,1.15
2023-01-27T21:21:31.744Z,1.00
2023-01-27T21:23:59.296Z,0.80
2023-01-27T21:26:26.660Z,0.80
2023-01-27T21:28:53.540Z,0.90
2023-01-27T21:31:21.910Z,0.85
2023-01-27T21:33:48.738Z,0.80
2023-01-27T21:36:15.510Z,0.77
2023-01-27T21:38:42.645Z,2.00
2023-01-27T21:41:17.843Z,0.90
2023-01-27T21:43:44.585Z,0.80
2023-01-27T21:46:11.357Z,0.80
2023-01-27T21:48:38.107Z,0.80
2023-01-27T21:51:04.980Z,0.70
2023-01-27T21:53:31.753Z,0.80
2023-01-27T21:56:08.452Z,0.80
2023-01-27T21:58:35.381Z,0.70
2023-01-27T22:01:11.166Z,0.70
2023-01-27T22:03:38.476Z,0.70
2023-01-27T22:06:09.423Z,0.80
2023-01-27T22:08:36.996Z,0.70
2023-01-27T22:11:05.748Z,0.80
2023-01-27T22:13:33.283Z,0.80
2023-01-27T22:16:00.729Z,0.90
2023-01-27T22:18:28.190Z,0.80
2023-01-27T22:20:55.019Z,0.80
2023-01-27T22:23:22.011Z,0.90
2023-01-27T22:25:53.303Z,0.90
2023-01-27T22:28:20.902Z,0.90
2023-01-27T22:30:47.718Z,0.85
2023-01-27T22:33:14.923Z,0.80
2023-01-27T22:35:42.022Z,0.80
2023-01-27T22:38:09.448Z,0.75
2023-01-27T22:40:36.199Z,0.80
2023-01-27T22:43:03.007Z,0.80
2023-01-27T22:45:29.770Z,2.22
2023-01-27T22:47:56.545Z,3.20
2023-01-27T22:50:23.352Z,1.25
2023-01-27T22:55:36.788Z,1.00
2023-01-27T23:00:50.208Z,1.20
2023-01-27T23:06:05.203Z,1.10
2023-01-27T23:08:32.803Z,0.80
2023-01-27T23:11:01.016Z,0.90
2023-01-27T23:13:28.848Z,1.00
2023-01-27T23:15:55.963Z,0.90
2023-01-27T23:18:23.224Z,0.80
2023-01-27T23:20:50.197Z,0.90
2023-01-27T23:23:17.365Z,0.80
2023-01-27T23:25:46.373Z,0.90
2023-01-27T23:28:15.497Z,0.80
2023-01-27T23:33:38.674Z,0.90
2023-01-27T23:38:35.901Z,0
2023-01-27T23:38:53.395Z,0.80
2023-01-27T23:41:20.535Z,0.80
2023-01-27T23:46:41.943Z,0.90
2023-01-27T23:51:57.883Z,0.90
2023-01-27T23:54:24.697Z,0.80
2023-01-27T23:56:51.485Z,0.70
2023-01-27T23:59:18.364Z,0.80
